sensor_id;sensor_type;location;lat;lon;timestamp;pressure;altitude;pressure_sealevel;temperature;humidity
8523;BME280;4299;42.202;24.736;2022-08-19T06:11:51;99198.59;;;26.95;nan
8523;BME280;4299;42.202;24.736;2022-08-19T08:30:40;99151.44;;;31.25;nan
8523;BME280;4299;42.202;24.736;2022-08-19T08:35:34;99138.31;;;31.33;nan
8523;BME280;4299;42.202;24.736;2022-08-19T08:40:33;99149.38;;;31.57;nan
8523;BME280;4299;42.202;24.736;2022-08-19T08:50:34;99130.84;;;32.48;nan
8523;BME280;4299;42.202;24.736;2022-08-19T08:53:03;99143.44;;;32.79;nan
8523;BME280;4299;42.202;24.736;2022-08-19T08:58:01;99126.72;;;33.16;nan
8523;BME280;4299;42.202;24.736;2022-08-19T09:02:59;99132.06;;;33.46;nan
8523;BME280;4299;42.202;24.736;2022-08-19T09:05:54;99135.47;;;33.65;nan
8523;BME280;4299;42.202;24.736;2022-08-19T09:08:32;99123.78;;;33.57;nan
8523;BME280;4299;42.202;24.736;2022-08-19T09:11:03;99131.88;;;33.76;nan
8523;BME280;4299;42.202;24.736;2022-08-19T09:13:38;99127.25;;;33.93;nan
8523;BME280;4299;42.202;24.736;2022-08-19T09:16:12;99126.28;;;33.99;nan
8523;BME280;4299;42.202;24.736;2022-08-19T09:18:44;99118.81;;;34.11;nan
8523;BME280;4299;42.202;24.736;2022-08-19T09:21:11;99119.31;;;34.08;nan
8523;BME280;4299;42.202;24.736;2022-08-19T09:23:38;99120.69;;;34.22;nan
8523;BME280;4299;42.202;24.736;2022-08-19T09:28:38;99135.88;;;34.25;nan
8523;BME280;4299;42.202;24.736;2022-08-19T09:31:08;99127.72;;;34.63;nan
8523;BME280;4299;42.202;24.736;2022-08-19T09:33:35;99115.56;;;34.76;nan
8523;BME280;4299;42.202;24.736;2022-08-19T09:36:05;99116.88;;;34.90;nan
8523;BME280;4299;42.202;24.736;2022-08-19T09:38:33;99119.03;;;35.05;nan
8523;BME280;4299;42.202;24.736;2022-08-19T09:41:04;99122.19;;;35.13;nan
8523;BME280;4299;42.202;24.736;2022-08-19T09:43:33;99135.22;;;35.01;nan
8523;BME280;4299;42.202;24.736;2022-08-19T09:46:02;99121.69;;;35.00;nan
8523;BME280;4299;42.202;24.736;2022-08-19T09:48:30;99103.53;;;34.82;nan
8523;BME280;4299;42.202;24.736;2022-08-19T09:51:05;99107.03;;;34.61;nan
8523;BME280;4299;42.202;24.736;2022-08-19T09:53:33;99106.03;;;34.67;nan
8523;BME280;4299;42.202;24.736;2022-08-19T09:56:00;99104.56;;;34.76;nan
8523;BME280;4299;42.202;24.736;2022-08-19T09:58:27;99120.06;;;34.82;nan
8523;BME280;4299;42.202;24.736;2022-08-19T10:00:56;99105.72;;;34.80;nan
8523;BME280;4299;42.202;24.736;2022-08-19T10:03:23;99101.88;;;34.81;nan
8523;BME280;4299;42.202;24.736;2022-08-19T10:05:50;99086.50;;;34.85;nan
8523;BME280;4299;42.202;24.736;2022-08-19T10:08:21;99089.47;;;35.00;nan
8523;BME280;4299;42.202;24.736;2022-08-19T10:10:49;99092.44;;;35.15;nan
8523;BME280;4299;42.202;24.736;2022-08-19T10:13:17;99082.78;;;35.13;nan
8523;BME280;4299;42.202;24.736;2022-08-19T10:15:50;99083.28;;;35.10;nan
8523;BME280;4299;42.202;24.736;2022-08-19T10:18:19;99085.13;;;35.04;nan
8523;BME280;4299;42.202;24.736;2022-08-19T10:20:46;99085.84;;;34.78;nan
8523;BME280;4299;42.202;24.736;2022-08-19T10:23:13;99082.19;;;34.72;nan
8523;BME280;4299;42.202;24.736;2022-08-19T10:25:42;99094.53;;;34.70;nan
8523;BME280;4299;42.202;24.736;2022-08-19T10:28:09;99075.84;;;34.72;nan
8523;BME280;4299;42.202;24.736;2022-08-19T10:30:40;99062.28;;;34.70;nan
8523;BME280;4299;42.202;24.736;2022-08-19T10:33:07;99072.97;;;34.67;nan
8523;BME280;4299;42.202;24.736;2022-08-19T10:35:33;99035.75;;;34.64;nan
8523;BME280;4299;42.202;24.736;2022-08-19T10:38:01;99070.81;;;34.86;nan
8523;BME280;4299;42.202;24.736;2022-08-19T10:40:28;99064.25;;;35.08;nan
8523;BME280;4299;42.202;24.736;2022-08-19T10:42:56;99062.88;;;35.28;nan
8523;BME280;4299;42.202;24.736;2022-08-19T10:45:23;99061.97;;;35.44;nan
8523;BME280;4299;42.202;24.736;2022-08-19T10:47:52;99043.56;;;35.49;nan
8523;BME280;4299;42.202;24.736;2022-08-19T10:50:19;99056.91;;;35.58;nan
8523;BME280;4299;42.202;24.736;2022-08-19T10:53:04;99062.34;;;35.74;nan
8523;BME280;4299;42.202;24.736;2022-08-19T10:55:33;99064.63;;;35.82;nan
8523;BME280;4299;42.202;24.736;2022-08-19T10:58:21;99061.63;;;35.84;nan
8523;BME280;4299;42.202;24.736;2022-08-19T11:00:54;99060.06;;;35.93;nan
8523;BME280;4299;42.202;24.736;2022-08-19T11:03:22;99054.94;;;36.07;nan
8523;BME280;4299;42.202;24.736;2022-08-19T11:05:57;99057.66;;;36.28;nan
8523;BME280;4299;42.202;24.736;2022-08-19T11:08:24;99066.41;;;36.20;nan
8523;BME280;4299;42.202;24.736;2022-08-19T11:10:53;99036.91;;;36.26;nan
8523;BME280;4299;42.202;24.736;2022-08-19T11:13:23;99045.88;;;36.38;nan
8523;BME280;4299;42.202;24.736;2022-08-19T11:15:57;99045.31;;;36.41;nan
8523;BME280;4299;42.202;24.736;2022-08-19T11:18:24;99042.31;;;36.43;nan
8523;BME280;4299;42.202;24.736;2022-08-19T11:20:51;99039.28;;;36.44;nan
8523;BME280;4299;42.202;24.736;2022-08-19T11:23:18;99032.84;;;36.34;nan
8523;BME280;4299;42.202;24.736;2022-08-19T11:25:44;99037.63;;;36.43;nan
8523;BME280;4299;42.202;24.736;2022-08-19T11:28:11;99033.91;;;36.64;nan
8523;BME280;4299;42.202;24.736;2022-08-19T11:30:40;99031.25;;;36.80;nan
8523;BME280;4299;42.202;24.736;2022-08-19T11:33:06;99023.53;;;36.82;nan
8523;BME280;4299;42.202;24.736;2022-08-19T11:35:33;99035.97;;;36.79;nan
8523;BME280;4299;42.202;24.736;2022-08-19T11:38:00;99021.81;;;36.71;nan
8523;BME280;4299;42.202;24.736;2022-08-19T11:40:28;99021.56;;;36.40;nan
8523;BME280;4299;42.202;24.736;2022-08-19T11:42:54;99008.84;;;36.39;nan
8523;BME280;4299;42.202;24.736;2022-08-19T11:45:21;99019.50;;;36.62;nan
8523;BME280;4299;42.202;24.736;2022-08-19T11:47:50;99003.16;;;36.93;nan
8523;BME280;4299;42.202;24.736;2022-08-19T11:50:17;99019.53;;;37.10;nan
8523;BME280;4299;42.202;24.736;2022-08-19T11:52:44;99008.78;;;37.13;nan
8523;BME280;4299;42.202;24.736;2022-08-19T11:55:11;99001.59;;;37.12;nan
8523;BME280;4299;42.202;24.736;2022-08-19T11:57:38;98998.88;;;37.17;nan
8523;BME280;4299;42.202;24.736;2022-08-19T12:00:07;99000.44;;;37.08;nan
8523;BME280;4299;42.202;24.736;2022-08-19T12:02:36;99003.25;;;37.13;nan
8523;BME280;4299;42.202;24.736;2022-08-19T12:05:05;98982.88;;;37.24;nan
8523;BME280;4299;42.202;24.736;2022-08-19T12:07:32;98982.81;;;37.14;nan
8523;BME280;4299;42.202;24.736;2022-08-19T12:10:00;99004.41;;;37.17;nan
8523;BME280;4299;42.202;24.736;2022-08-19T12:12:27;98975.72;;;37.43;nan
8523;BME280;4299;42.202;24.736;2022-08-19T12:14:54;98987.41;;;37.61;nan
8523;BME280;4299;42.202;24.736;2022-08-19T12:17:24;98977.94;;;37.52;nan
8523;BME280;4299;42.202;24.736;2022-08-19T12:19:51;98974.63;;;37.50;nan
8523;BME280;4299;42.202;24.736;2022-08-19T12:22:19;98973.50;;;37.56;nan
8523;BME280;4299;42.202;24.736;2022-08-19T12:24:46;98969.41;;;37.63;nan
8523;BME280;4299;42.202;24.736;2022-08-19T12:27:15;98969.16;;;37.70;nan
8523;BME280;4299;42.202;24.736;2022-08-19T12:29:42;98965.28;;;37.61;nan
8523;BME280;4299;42.202;24.736;2022-08-19T12:32:09;98973.56;;;37.66;nan
8523;BME280;4299;42.202;24.736;2022-08-19T12:34:35;98969.72;;;37.97;nan
8523;BME280;4299;42.202;24.736;2022-08-19T12:37:05;98993.53;;;38.39;nan
8523;BME280;4299;42.202;24.736;2022-08-19T12:49:18;62058.31;;;-141.59;100.00
8523;BME280;4299;42.202;24.736;2022-08-19T13:13:46;98934.81;;;38.37;nan
8523;BME280;4299;42.202;24.736;2022-08-19T13:16:14;98935.94;;;38.31;nan
8523;BME280;4299;42.202;24.736;2022-08-19T13:18:45;98925.66;;;38.62;nan
8523;BME280;4299;42.202;24.736;2022-08-19T13:21:13;98932.19;;;38.91;nan
8523;BME280;4299;42.202;24.736;2022-08-19T13:23:40;98948.47;;;39.13;nan
8523;BME280;4299;42.202;24.736;2022-08-19T13:26:10;98963.19;;;39.08;nan
8523;BME280;4299;42.202;24.736;2022-08-19T13:28:36;98938.59;;;38.86;nan
8523;BME280;4299;42.202;24.736;2022-08-19T13:31:27;98942.47;;;38.85;nan
8523;BME280;4299;42.202;24.736;2022-08-19T13:34:12;98936.34;;;38.88;nan
8523;BME280;4299;42.202;24.736;2022-08-19T13:36:40;98933.03;;;38.86;nan
8523;BME280;4299;42.202;24.736;2022-08-19T13:39:07;98925.31;;;38.78;nan
8523;BME280;4299;42.202;24.736;2022-08-19T13:41:34;98929.22;;;38.67;nan
8523;BME280;4299;42.202;24.736;2022-08-19T13:44:01;98913.72;;;38.71;nan
8523;BME280;4299;42.202;24.736;2022-08-19T13:46:30;98925.84;;;38.85;nan
8523;BME280;4299;42.202;24.736;2022-08-19T13:48:56;98926.66;;;38.86;nan
8523;BME280;4299;42.202;24.736;2022-08-19T13:51:23;98919.69;;;38.88;nan
8523;BME280;4299;42.202;24.736;2022-08-19T13:53:50;98915.75;;;39.10;nan
8523;BME280;4299;42.202;24.736;2022-08-19T13:56:19;98911.22;;;39.24;nan
8523;BME280;4299;42.202;24.736;2022-08-19T13:58:46;98911.50;;;39.27;nan
8523;BME280;4299;42.202;24.736;2022-08-19T14:01:19;98917.28;;;39.31;nan
8523;BME280;4299;42.202;24.736;2022-08-19T14:03:47;98919.91;;;39.56;nan
8523;BME280;4299;42.202;24.736;2022-08-19T14:11:08;98912.97;;;40.51;nan
8523;BME280;4299;42.202;24.736;2022-08-19T14:13:35;98915.06;;;42.46;nan
8523;BME280;4299;42.202;24.736;2022-08-19T14:16:06;98929.47;;;44.02;nan
8523;BME280;4299;42.202;24.736;2022-08-19T16:36:19;98853.81;;;40.21;nan
8523;BME280;4299;42.202;24.736;2022-08-19T16:38:48;98858.53;;;39.63;nan
8523;BME280;4299;42.202;24.736;2022-08-19T16:41:15;98689.06;;;38.08;nan
8523;BME280;4299;42.202;24.736;2022-08-19T16:43:43;98812.97;;;38.37;nan
8523;BME280;4299;42.202;24.736;2022-08-19T16:46:09;98836.31;;;38.21;nan
8523;BME280;4299;42.202;24.736;2022-08-19T16:48:37;98820.31;;;37.67;nan
8523;BME280;4299;42.202;24.736;2022-08-19T17:08:20;98756.94;;;32.98;nan
